Lowestoft, United Kingdom
Current Conditions -  °F | °C
As of 6:20 PM on Monday 22 Dec 2014 (Local Time) from EGSD Reporting Station
Scattered Clouds Scattered Clouds  
Wind Chill: 55°   Ceiling: Unl
Heat Index: 55°   Visibility: 6mi
Dew Point: 50°   Wind: 28mph
Humidity: 82%   Direction: 240°WSW
Pressure: 29.91"   Gusts: 39mph
Location:  52.47°N, 1.75°E
Report Text: EGSD 221820Z 24024G34KT 9999 SCT020 13/10 Q1013
Loading
Personal Weather Stations






























Interactive Weather Map New forecast layout! Learn more

10-Day Weather Forecast

Advertisements
Track Severe Weather on mobile